sensor_id;sensor_type;location;lat;lon;timestamp;P1;durP1;ratioP1;P2;durP2;ratioP2
13185;SDS011;6658;53.080;7.428;2022-08-05T00:01:41;2.40;;;2.20;;
13185;SDS011;6658;53.080;7.428;2022-08-05T00:04:07;3.50;;;2.80;;
13185;SDS011;6658;53.080;7.428;2022-08-05T00:06:32;3.47;;;2.50;;
13185;SDS011;6658;53.080;7.428;2022-08-05T00:09:02;3.43;;;2.23;;
13185;SDS011;6658;53.080;7.428;2022-08-05T00:11:28;4.53;;;2.77;;
13185;SDS011;6658;53.080;7.428;2022-08-05T00:13:54;7.07;;;3.10;;
13185;SDS011;6658;53.080;7.428;2022-08-05T00:16:19;5.37;;;2.70;;
13185;SDS011;6658;53.080;7.428;2022-08-05T00:18:46;4.33;;;2.80;;
13185;SDS011;6658;53.080;7.428;2022-08-05T00:21:13;2.93;;;2.63;;
13185;SDS011;6658;53.080;7.428;2022-08-05T00:23:41;3.97;;;2.83;;
13185;SDS011;6658;53.080;7.428;2022-08-05T00:26:08;4.20;;;3.30;;
13185;SDS011;6658;53.080;7.428;2022-08-05T00:28:34;5.53;;;3.67;;
13185;SDS011;6658;53.080;7.428;2022-08-05T00:31:00;5.47;;;3.20;;
13185;SDS011;6658;53.080;7.428;2022-08-05T00:33:26;5.03;;;3.60;;
13185;SDS011;6658;53.080;7.428;2022-08-05T00:35:52;7.87;;;4.07;;
13185;SDS011;6658;53.080;7.428;2022-08-05T00:38:17;6.67;;;3.53;;
13185;SDS011;6658;53.080;7.428;2022-08-05T00:40:47;4.70;;;3.70;;
13185;SDS011;6658;53.080;7.428;2022-08-05T00:43:17;4.47;;;3.30;;
13185;SDS011;6658;53.080;7.428;2022-08-05T00:45:43;6.83;;;3.70;;
13185;SDS011;6658;53.080;7.428;2022-08-05T00:48:10;4.90;;;3.30;;
13185;SDS011;6658;53.080;7.428;2022-08-05T00:50:38;5.27;;;3.70;;
13185;SDS011;6658;53.080;7.428;2022-08-05T00:53:05;4.13;;;3.67;;
13185;SDS011;6658;53.080;7.428;2022-08-05T00:55:31;6.17;;;3.97;;
13185;SDS011;6658;53.080;7.428;2022-08-05T00:57:56;5.93;;;3.90;;
13185;SDS011;6658;53.080;7.428;2022-08-05T01:00:22;4.87;;;4.00;;
13185;SDS011;6658;53.080;7.428;2022-08-05T01:02:48;6.10;;;4.53;;
13185;SDS011;6658;53.080;7.428;2022-08-05T01:05:13;7.57;;;4.70;;
13185;SDS011;6658;53.080;7.428;2022-08-05T01:07:39;5.83;;;4.47;;
13185;SDS011;6658;53.080;7.428;2022-08-05T01:10:06;6.93;;;4.50;;
13185;SDS011;6658;53.080;7.428;2022-08-05T01:12:34;4.80;;;3.80;;
13185;SDS011;6658;53.080;7.428;2022-08-05T01:15:02;6.43;;;4.17;;
13185;SDS011;6658;53.080;7.428;2022-08-05T01:17:37;5.27;;;4.20;;
13185;SDS011;6658;53.080;7.428;2022-08-05T01:28:12;4.97;;;4.10;;
13185;SDS011;6658;53.080;7.428;2022-08-05T01:31:49;7.13;;;4.30;;
13185;SDS011;6658;53.080;7.428;2022-08-05T01:34:11;5.93;;;4.53;;
13185;SDS011;6658;53.080;7.428;2022-08-05T01:36:45;5.33;;;3.93;;
13185;SDS011;6658;53.080;7.428;2022-08-05T01:39:15;4.73;;;4.03;;
13185;SDS011;6658;53.080;7.428;2022-08-05T01:41:43;4.60;;;4.10;;
13185;SDS011;6658;53.080;7.428;2022-08-05T01:44:11;5.67;;;4.60;;
13185;SDS011;6658;53.080;7.428;2022-08-05T01:46:38;5.30;;;4.20;;
13185;SDS011;6658;53.080;7.428;2022-08-05T01:49:05;5.57;;;4.23;;
13185;SDS011;6658;53.080;7.428;2022-08-05T01:51:33;5.00;;;3.97;;
13185;SDS011;6658;53.080;7.428;2022-08-05T01:54:00;6.40;;;4.60;;
13185;SDS011;6658;53.080;7.428;2022-08-05T01:56:29;5.97;;;4.57;;
13185;SDS011;6658;53.080;7.428;2022-08-05T01:58:58;5.93;;;4.40;;
13185;SDS011;6658;53.080;7.428;2022-08-05T02:01:27;6.47;;;4.07;;
13185;SDS011;6658;53.080;7.428;2022-08-05T02:03:55;5.87;;;4.57;;
13185;SDS011;6658;53.080;7.428;2022-08-05T02:06:21;7.53;;;4.10;;
13185;SDS011;6658;53.080;7.428;2022-08-05T02:08:47;6.90;;;4.50;;
13185;SDS011;6658;53.080;7.428;2022-08-05T02:11:14;5.03;;;4.47;;
13185;SDS011;6658;53.080;7.428;2022-08-05T02:14:00;8.53;;;4.60;;
13185;SDS011;6658;53.080;7.428;2022-08-05T02:16:38;6.73;;;4.43;;
13185;SDS011;6658;53.080;7.428;2022-08-05T02:24:37;5.80;;;4.83;;
13185;SDS011;6658;53.080;7.428;2022-08-05T02:27:05;6.13;;;4.93;;
13185;SDS011;6658;53.080;7.428;2022-08-05T02:29:34;5.10;;;4.60;;
13185;SDS011;6658;53.080;7.428;2022-08-05T02:32:01;6.87;;;4.67;;
13185;SDS011;6658;53.080;7.428;2022-08-05T02:34:29;6.53;;;4.87;;
13185;SDS011;6658;53.080;7.428;2022-08-05T02:36:57;5.70;;;4.43;;
13185;SDS011;6658;53.080;7.428;2022-08-05T02:39:28;4.97;;;3.90;;
13185;SDS011;6658;53.080;7.428;2022-08-05T02:41:59;4.77;;;3.93;;
13185;SDS011;6658;53.080;7.428;2022-08-05T02:44:26;5.90;;;4.13;;
13185;SDS011;6658;53.080;7.428;2022-08-05T02:46:54;6.20;;;4.83;;
13185;SDS011;6658;53.080;7.428;2022-08-05T02:49:21;5.67;;;4.37;;
13185;SDS011;6658;53.080;7.428;2022-08-05T02:51:48;5.00;;;4.50;;
13185;SDS011;6658;53.080;7.428;2022-08-05T02:54:16;6.07;;;4.63;;
13185;SDS011;6658;53.080;7.428;2022-08-05T02:56:42;6.17;;;4.73;;
13185;SDS011;6658;53.080;7.428;2022-08-05T02:59:09;8.23;;;6.43;;
13185;SDS011;6658;53.080;7.428;2022-08-05T03:01:36;7.33;;;5.33;;
13185;SDS011;6658;53.080;7.428;2022-08-05T03:04:07;6.60;;;5.20;;
13185;SDS011;6658;53.080;7.428;2022-08-05T03:06:37;6.90;;;5.80;;
13185;SDS011;6658;53.080;7.428;2022-08-05T03:09:04;9.27;;;5.70;;
13185;SDS011;6658;53.080;7.428;2022-08-05T03:11:30;5.23;;;4.73;;
13185;SDS011;6658;53.080;7.428;2022-08-05T03:14:14;7.13;;;4.63;;
13185;SDS011;6658;53.080;7.428;2022-08-05T03:16:39;8.27;;;4.93;;
13185;SDS011;6658;53.080;7.428;2022-08-05T03:19:05;9.33;;;5.87;;
13185;SDS011;6658;53.080;7.428;2022-08-05T03:21:31;5.37;;;4.87;;
13185;SDS011;6658;53.080;7.428;2022-08-05T03:23:57;6.10;;;5.50;;
13185;SDS011;6658;53.080;7.428;2022-08-05T03:26:23;5.53;;;4.90;;
13185;SDS011;6658;53.080;7.428;2022-08-05T03:28:49;7.03;;;4.93;;
13185;SDS011;6658;53.080;7.428;2022-08-05T03:31:14;5.27;;;4.73;;
13185;SDS011;6658;53.080;7.428;2022-08-05T03:33:40;5.87;;;4.60;;
13185;SDS011;6658;53.080;7.428;2022-08-05T03:36:06;6.87;;;5.17;;
13185;SDS011;6658;53.080;7.428;2022-08-05T03:38:37;6.70;;;5.53;;
13185;SDS011;6658;53.080;7.428;2022-08-05T03:41:05;7.00;;;6.23;;
13185;SDS011;6658;53.080;7.428;2022-08-05T03:43:31;7.00;;;6.30;;
13185;SDS011;6658;53.080;7.428;2022-08-05T03:45:57;10.33;;;6.13;;
13185;SDS011;6658;53.080;7.428;2022-08-05T03:48:23;7.90;;;6.37;;
13185;SDS011;6658;53.080;7.428;2022-08-05T03:50:50;7.37;;;5.83;;
13185;SDS011;6658;53.080;7.428;2022-08-05T03:53:19;8.40;;;6.07;;
13185;SDS011;6658;53.080;7.428;2022-08-05T03:55:56;7.90;;;6.10;;
13185;SDS011;6658;53.080;7.428;2022-08-05T03:58:27;8.40;;;6.10;;
13185;SDS011;6658;53.080;7.428;2022-08-05T04:00:57;8.30;;;6.50;;
13185;SDS011;6658;53.080;7.428;2022-08-05T04:03:25;7.87;;;5.90;;
13185;SDS011;6658;53.080;7.428;2022-08-05T04:05:52;8.20;;;6.33;;
13185;SDS011;6658;53.080;7.428;2022-08-05T04:08:19;6.50;;;5.83;;
13185;SDS011;6658;53.080;7.428;2022-08-05T04:10:45;8.50;;;6.03;;
13185;SDS011;6658;53.080;7.428;2022-08-05T04:13:11;7.70;;;6.20;;
13185;SDS011;6658;53.080;7.428;2022-08-05T04:15:38;6.27;;;5.63;;
13185;SDS011;6658;53.080;7.428;2022-08-05T04:18:04;5.77;;;5.20;;
13185;SDS011;6658;53.080;7.428;2022-08-05T04:20:30;6.80;;;6.13;;
13185;SDS011;6658;53.080;7.428;2022-08-05T04:22:56;6.90;;;5.77;;
13185;SDS011;6658;53.080;7.428;2022-08-05T04:25:22;7.27;;;5.87;;
13185;SDS011;6658;53.080;7.428;2022-08-05T04:27:48;6.33;;;5.70;;
13185;SDS011;6658;53.080;7.428;2022-08-05T04:30:13;7.60;;;6.00;;
13185;SDS011;6658;53.080;7.428;2022-08-05T04:32:39;7.50;;;5.63;;
13185;SDS011;6658;53.080;7.428;2022-08-05T04:35:05;8.00;;;6.10;;
13185;SDS011;6658;53.080;7.428;2022-08-05T04:37:31;6.20;;;5.53;;
13185;SDS011;6658;53.080;7.428;2022-08-05T04:39:57;7.43;;;5.90;;
13185;SDS011;6658;53.080;7.428;2022-08-05T04:42:23;7.67;;;5.67;;
13185;SDS011;6658;53.080;7.428;2022-08-05T04:44:49;6.57;;;5.70;;
13185;SDS011;6658;53.080;7.428;2022-08-05T04:47:15;7.00;;;5.67;;
13185;SDS011;6658;53.080;7.428;2022-08-05T04:49:40;6.90;;;6.07;;
13185;SDS011;6658;53.080;7.428;2022-08-05T04:52:06;6.63;;;5.27;;
13185;SDS011;6658;53.080;7.428;2022-08-05T04:54:32;8.23;;;5.83;;
13185;SDS011;6658;53.080;7.428;2022-08-05T04:56:57;8.57;;;5.23;;
13185;SDS011;6658;53.080;7.428;2022-08-05T04:59:23;6.40;;;5.80;;
13185;SDS011;6658;53.080;7.428;2022-08-05T05:01:49;6.80;;;5.33;;
13185;SDS011;6658;53.080;7.428;2022-08-05T05:04:18;8.93;;;6.15;;
13185;SDS011;6658;53.080;7.428;2022-08-05T05:06:43;8.10;;;6.17;;
13185;SDS011;6658;53.080;7.428;2022-08-05T05:09:10;6.03;;;5.43;;
13185;SDS011;6658;53.080;7.428;2022-08-05T05:11:36;5.83;;;5.27;;
13185;SDS011;6658;53.080;7.428;2022-08-05T05:14:02;6.50;;;5.23;;
13185;SDS011;6658;53.080;7.428;2022-08-05T05:16:28;8.37;;;5.63;;
13185;SDS011;6658;53.080;7.428;2022-08-05T05:18:54;6.20;;;5.60;;
13185;SDS011;6658;53.080;7.428;2022-08-05T05:21:19;6.80;;;5.07;;
13185;SDS011;6658;53.080;7.428;2022-08-05T05:23:45;6.70;;;5.43;;
13185;SDS011;6658;53.080;7.428;2022-08-05T05:26:11;7.83;;;4.63;;
13185;SDS011;6658;53.080;7.428;2022-08-05T05:28:36;4.93;;;4.53;;
13185;SDS011;6658;53.080;7.428;2022-08-05T05:31:02;5.07;;;4.40;;
13185;SDS011;6658;53.080;7.428;2022-08-05T05:33:28;5.23;;;4.53;;
13185;SDS011;6658;53.080;7.428;2022-08-05T05:35:53;4.90;;;4.50;;
13185;SDS011;6658;53.080;7.428;2022-08-05T05:38:19;5.80;;;4.30;;
13185;SDS011;6658;53.080;7.428;2022-08-05T05:40:45;4.43;;;3.70;;
13185;SDS011;6658;53.080;7.428;2022-08-05T05:43:10;4.13;;;3.63;;
13185;SDS011;6658;53.080;7.428;2022-08-05T05:45:36;4.77;;;3.73;;
13185;SDS011;6658;53.080;7.428;2022-08-05T05:48:02;3.97;;;3.30;;
13185;SDS011;6658;53.080;7.428;2022-08-05T05:50:31;6.37;;;3.50;;
13185;SDS011;6658;53.080;7.428;2022-08-05T05:52:57;4.20;;;3.40;;
13185;SDS011;6658;53.080;7.428;2022-08-05T05:55:23;4.27;;;3.20;;
13185;SDS011;6658;53.080;7.428;2022-08-05T05:57:48;3.80;;;3.13;;
13185;SDS011;6658;53.080;7.428;2022-08-05T06:00:16;3.50;;;3.20;;
13185;SDS011;6658;53.080;7.428;2022-08-05T06:02:43;4.53;;;3.40;;
13185;SDS011;6658;53.080;7.428;2022-08-05T06:05:12;3.43;;;3.13;;
13185;SDS011;6658;53.080;7.428;2022-08-05T06:07:39;3.13;;;2.83;;
13185;SDS011;6658;53.080;7.428;2022-08-05T06:10:06;3.50;;;3.20;;
13185;SDS011;6658;53.080;7.428;2022-08-05T06:12:33;4.00;;;3.07;;
13185;SDS011;6658;53.080;7.428;2022-08-05T06:15:00;4.57;;;3.00;;
13185;SDS011;6658;53.080;7.428;2022-08-05T06:17:28;4.90;;;3.20;;
13185;SDS011;6658;53.080;7.428;2022-08-05T06:19:53;4.30;;;3.10;;
13185;SDS011;6658;53.080;7.428;2022-08-05T06:22:22;4.43;;;3.10;;
13185;SDS011;6658;53.080;7.428;2022-08-05T06:24:52;3.00;;;2.80;;
13185;SDS011;6658;53.080;7.428;2022-08-05T06:27:18;5.07;;;2.90;;
13185;SDS011;6658;53.080;7.428;2022-08-05T06:29:44;4.37;;;3.23;;
13185;SDS011;6658;53.080;7.428;2022-08-05T06:32:10;3.27;;;2.97;;
13185;SDS011;6658;53.080;7.428;2022-08-05T06:34:36;3.80;;;2.97;;
13185;SDS011;6658;53.080;7.428;2022-08-05T06:37:01;2.63;;;2.40;;
13185;SDS011;6658;53.080;7.428;2022-08-05T06:39:27;5.37;;;2.67;;
13185;SDS011;6658;53.080;7.428;2022-08-05T06:41:56;3.33;;;2.60;;
13185;SDS011;6658;53.080;7.428;2022-08-05T06:44:22;2.70;;;2.50;;
13185;SDS011;6658;53.080;7.428;2022-08-05T06:46:48;2.87;;;2.67;;
13185;SDS011;6658;53.080;7.428;2022-08-05T06:49:14;5.33;;;2.80;;
13185;SDS011;6658;53.080;7.428;2022-08-05T06:51:39;3.83;;;2.37;;
13185;SDS011;6658;53.080;7.428;2022-08-05T06:54:05;3.73;;;2.20;;
13185;SDS011;6658;53.080;7.428;2022-08-05T06:56:31;2.67;;;1.93;;
13185;SDS011;6658;53.080;7.428;2022-08-05T06:58:57;2.87;;;2.30;;
13185;SDS011;6658;53.080;7.428;2022-08-05T07:01:23;4.17;;;2.20;;
13185;SDS011;6658;53.080;7.428;2022-08-05T07:03:49;3.70;;;2.80;;
13185;SDS011;6658;53.080;7.428;2022-08-05T07:06:15;3.60;;;2.20;;
13185;SDS011;6658;53.080;7.428;2022-08-05T07:08:41;2.30;;;1.87;;
13185;SDS011;6658;53.080;7.428;2022-08-05T07:11:07;1.93;;;1.67;;
13185;SDS011;6658;53.080;7.428;2022-08-05T07:13:33;3.53;;;1.83;;
13185;SDS011;6658;53.080;7.428;2022-08-05T07:16:17;2.40;;;2.00;;
13185;SDS011;6658;53.080;7.428;2022-08-05T07:19:01;2.73;;;1.60;;
13185;SDS011;6658;53.080;7.428;2022-08-05T07:21:28;1.90;;;1.67;;
13185;SDS011;6658;53.080;7.428;2022-08-05T07:23:54;2.67;;;1.60;;
13185;SDS011;6658;53.080;7.428;2022-08-05T07:26:21;1.30;;;1.20;;
13185;SDS011;6658;53.080;7.428;2022-08-05T07:28:47;3.07;;;1.10;;
13185;SDS011;6658;53.080;7.428;2022-08-05T07:31:14;2.37;;;1.50;;
13185;SDS011;6658;53.080;7.428;2022-08-05T07:33:40;2.63;;;1.17;;
13185;SDS011;6658;53.080;7.428;2022-08-05T07:36:06;1.87;;;0.80;;
13185;SDS011;6658;53.080;7.428;2022-08-05T07:38:32;3.97;;;1.87;;
13185;SDS011;6658;53.080;7.428;2022-08-05T07:41:00;2.67;;;1.27;;
13185;SDS011;6658;53.080;7.428;2022-08-05T07:43:27;3.27;;;1.53;;
13185;SDS011;6658;53.080;7.428;2022-08-05T07:45:52;3.37;;;1.50;;
13185;SDS011;6658;53.080;7.428;2022-08-05T07:48:18;1.70;;;1.23;;
13185;SDS011;6658;53.080;7.428;2022-08-05T07:50:44;1.80;;;1.30;;
13185;SDS011;6658;53.080;7.428;2022-08-05T07:53:09;2.23;;;1.20;;
13185;SDS011;6658;53.080;7.428;2022-08-05T07:55:35;2.27;;;1.10;;
13185;SDS011;6658;53.080;7.428;2022-08-05T07:58:01;2.40;;;1.10;;
13185;SDS011;6658;53.080;7.428;2022-08-05T08:00:27;2.10;;;1.40;;
13185;SDS011;6658;53.080;7.428;2022-08-05T08:02:52;2.17;;;0.93;;
13185;SDS011;6658;53.080;7.428;2022-08-05T08:05:18;2.90;;;1.20;;
13185;SDS011;6658;53.080;7.428;2022-08-05T08:07:44;4.83;;;1.00;;
13185;SDS011;6658;53.080;7.428;2022-08-05T08:10:09;2.10;;;1.03;;
13185;SDS011;6658;53.080;7.428;2022-08-05T08:12:35;3.30;;;1.20;;
13185;SDS011;6658;53.080;7.428;2022-08-05T08:15:01;3.27;;;1.20;;
13185;SDS011;6658;53.080;7.428;2022-08-05T08:17:27;1.13;;;0.90;;
13185;SDS011;6658;53.080;7.428;2022-08-05T08:19:52;2.27;;;0.70;;
13185;SDS011;6658;53.080;7.428;2022-08-05T08:22:23;3.57;;;1.20;;
13185;SDS011;6658;53.080;7.428;2022-08-05T08:24:50;1.27;;;0.90;;
13185;SDS011;6658;53.080;7.428;2022-08-05T08:27:16;3.27;;;1.37;;
13185;SDS011;6658;53.080;7.428;2022-08-05T08:29:42;1.10;;;0.80;;
13185;SDS011;6658;53.080;7.428;2022-08-05T08:32:08;1.93;;;1.20;;
13185;SDS011;6658;53.080;7.428;2022-08-05T08:34:34;1.80;;;1.00;;
13185;SDS011;6658;53.080;7.428;2022-08-05T08:37:00;1.47;;;1.27;;
13185;SDS011;6658;53.080;7.428;2022-08-05T08:39:26;1.67;;;1.10;;
13185;SDS011;6658;53.080;7.428;2022-08-05T08:41:52;2.53;;;0.87;;
13185;SDS011;6658;53.080;7.428;2022-08-05T08:44:21;3.00;;;1.10;;
13185;SDS011;6658;53.080;7.428;2022-08-05T08:46:48;2.93;;;1.20;;
13185;SDS011;6658;53.080;7.428;2022-08-05T08:49:15;2.83;;;0.97;;
13185;SDS011;6658;53.080;7.428;2022-08-05T08:51:47;2.03;;;1.10;;
13185;SDS011;6658;53.080;7.428;2022-08-05T08:54:18;0.87;;;0.73;;
13185;SDS011;6658;53.080;7.428;2022-08-05T08:56:44;1.67;;;0.70;;
13185;SDS011;6658;53.080;7.428;2022-08-05T08:59:10;1.47;;;1.03;;
13185;SDS011;6658;53.080;7.428;2022-08-05T09:01:36;2.93;;;1.17;;
13185;SDS011;6658;53.080;7.428;2022-08-05T09:04:02;1.27;;;0.80;;
13185;SDS011;6658;53.080;7.428;2022-08-05T09:06:29;3.50;;;1.00;;
13185;SDS011;6658;53.080;7.428;2022-08-05T09:08:56;3.23;;;1.00;;
13185;SDS011;6658;53.080;7.428;2022-08-05T09:11:23;1.60;;;0.73;;
13185;SDS011;6658;53.080;7.428;2022-08-05T09:13:49;1.23;;;0.93;;
13185;SDS011;6658;53.080;7.428;2022-08-05T09:16:15;1.30;;;0.90;;
13185;SDS011;6658;53.080;7.428;2022-08-05T09:18:41;1.43;;;0.70;;
13185;SDS011;6658;53.080;7.428;2022-08-05T09:21:08;2.23;;;1.07;;
13185;SDS011;6658;53.080;7.428;2022-08-05T09:23:34;1.40;;;0.90;;
13185;SDS011;6658;53.080;7.428;2022-08-05T09:26:05;1.90;;;1.03;;
13185;SDS011;6658;53.080;7.428;2022-08-05T09:28:34;1.43;;;1.00;;
13185;SDS011;6658;53.080;7.428;2022-08-05T09:31:08;1.73;;;1.03;;
13185;SDS011;6658;53.080;7.428;2022-08-05T09:36:17;3.13;;;1.33;;
13185;SDS011;6658;53.080;7.428;2022-08-05T09:39:05;1.73;;;1.30;;
13185;SDS011;6658;53.080;7.428;2022-08-05T09:41:32;1.97;;;1.00;;
13185;SDS011;6658;53.080;7.428;2022-08-05T09:43:58;2.27;;;1.00;;
13185;SDS011;6658;53.080;7.428;2022-08-05T09:48:56;2.23;;;1.17;;
13185;SDS011;6658;53.080;7.428;2022-08-05T09:51:38;3.20;;;0.93;;
13185;SDS011;6658;53.080;7.428;2022-08-05T09:54:06;1.90;;;1.10;;
13185;SDS011;6658;53.080;7.428;2022-08-05T09:56:35;1.13;;;0.90;;
13185;SDS011;6658;53.080;7.428;2022-08-05T09:59:07;2.20;;;1.20;;
13185;SDS011;6658;53.080;7.428;2022-08-05T10:01:35;1.67;;;1.10;;
13185;SDS011;6658;53.080;7.428;2022-08-05T10:04:05;1.60;;;1.10;;
13185;SDS011;6658;53.080;7.428;2022-08-05T10:06:41;3.17;;;1.20;;
13185;SDS011;6658;53.080;7.428;2022-08-05T10:09:18;2.37;;;1.20;;
13185;SDS011;6658;53.080;7.428;2022-08-05T10:11:47;2.30;;;1.20;;
13185;SDS011;6658;53.080;7.428;2022-08-05T10:14:24;1.57;;;1.07;;
13185;SDS011;6658;53.080;7.428;2022-08-05T10:16:52;2.70;;;1.07;;
13185;SDS011;6658;53.080;7.428;2022-08-05T10:19:21;2.67;;;1.30;;
13185;SDS011;6658;53.080;7.428;2022-08-05T10:21:49;1.77;;;1.30;;
13185;SDS011;6658;53.080;7.428;2022-08-05T10:24:18;1.70;;;1.07;;
13185;SDS011;6658;53.080;7.428;2022-08-05T10:26:46;1.23;;;0.90;;
13185;SDS011;6658;53.080;7.428;2022-08-05T10:29:12;1.67;;;0.77;;
13185;SDS011;6658;53.080;7.428;2022-08-05T10:31:38;0.90;;;0.47;;
13185;SDS011;6658;53.080;7.428;2022-08-05T10:34:05;1.83;;;0.70;;
13185;SDS011;6658;53.080;7.428;2022-08-05T10:36:34;0.60;;;0.60;;
13185;SDS011;6658;53.080;7.428;2022-08-05T10:39:04;2.17;;;0.80;;
13185;SDS011;6658;53.080;7.428;2022-08-05T10:41:36;1.07;;;0.57;;
13185;SDS011;6658;53.080;7.428;2022-08-05T10:44:11;0.43;;;0.30;;
13185;SDS011;6658;53.080;7.428;2022-08-05T10:49:16;0.50;;;0.40;;
13185;SDS011;6658;53.080;7.428;2022-08-05T10:51:43;2.17;;;0.77;;
13185;SDS011;6658;53.080;7.428;2022-08-05T10:54:21;1.27;;;0.50;;
13185;SDS011;6658;53.080;7.428;2022-08-05T10:56:50;0.63;;;0.40;;
13185;SDS011;6658;53.080;7.428;2022-08-05T10:59:27;0.60;;;0.50;;
13185;SDS011;6658;53.080;7.428;2022-08-05T11:02:06;2.07;;;0.60;;
13185;SDS011;6658;53.080;7.428;2022-08-05T11:04:42;0.43;;;0.33;;
13185;SDS011;6658;53.080;7.428;2022-08-05T11:07:12;2.67;;;0.70;;
13185;SDS011;6658;53.080;7.428;2022-08-05T11:17:46;1.27;;;0.53;;
13185;SDS011;6658;53.080;7.428;2022-08-05T11:20:32;0.60;;;0.30;;
13185;SDS011;6658;53.080;7.428;2022-08-05T11:26:05;0.80;;;0.40;;
13185;SDS011;6658;53.080;7.428;2022-08-05T11:33:27;0.77;;;0.43;;
13185;SDS011;6658;53.080;7.428;2022-08-05T11:35:58;0.30;;;0.30;;
13185;SDS011;6658;53.080;7.428;2022-08-05T11:41:17;2.13;;;0.50;;
13185;SDS011;6658;53.080;7.428;2022-08-05T11:43:55;1.07;;;0.60;;
13185;SDS011;6658;53.080;7.428;2022-08-05T11:49:09;0.60;;;0.40;;
13185;SDS011;6658;53.080;7.428;2022-08-05T11:51:40;1.17;;;0.30;;
13185;SDS011;6658;53.080;7.428;2022-08-05T11:54:08;1.80;;;0.47;;
13185;SDS011;6658;53.080;7.428;2022-08-05T11:56:42;1.37;;;0.60;;
13185;SDS011;6658;53.080;7.428;2022-08-05T11:59:15;1.27;;;0.70;;
13185;SDS011;6658;53.080;7.428;2022-08-05T12:01:53;1.53;;;0.50;;
13185;SDS011;6658;53.080;7.428;2022-08-05T12:07:06;1.50;;;0.63;;
13185;SDS011;6658;53.080;7.428;2022-08-05T12:09:42;2.00;;;0.37;;
13185;SDS011;6658;53.080;7.428;2022-08-05T12:12:25;0.60;;;0.30;;
13185;SDS011;6658;53.080;7.428;2022-08-05T12:14:54;0.70;;;0.50;;
13185;SDS011;6658;53.080;7.428;2022-08-05T12:17:23;0.80;;;0.30;;
13185;SDS011;6658;53.080;7.428;2022-08-05T12:19:52;0.33;;;0.33;;
13185;SDS011;6658;53.080;7.428;2022-08-05T12:22:20;2.00;;;0.30;;
13185;SDS011;6658;53.080;7.428;2022-08-05T12:24:50;0.30;;;0.30;;
13185;SDS011;6658;53.080;7.428;2022-08-05T12:27:34;1.07;;;0.33;;
13185;SDS011;6658;53.080;7.428;2022-08-05T12:30:09;1.10;;;0.70;;
13185;SDS011;6658;53.080;7.428;2022-08-05T12:32:45;1.80;;;0.40;;
13185;SDS011;6658;53.080;7.428;2022-08-05T12:35:15;0.33;;;0.30;;
13185;SDS011;6658;53.080;7.428;2022-08-05T12:37:41;1.60;;;0.30;;
13185;SDS011;6658;53.080;7.428;2022-08-05T12:40:09;1.77;;;0.30;;
13185;SDS011;6658;53.080;7.428;2022-08-05T12:42:35;0.20;;;0.17;;
13185;SDS011;6658;53.080;7.428;2022-08-05T12:45:03;0.50;;;0.30;;
13185;SDS011;6658;53.080;7.428;2022-08-05T12:47:30;0.33;;;0.20;;
13185;SDS011;6658;53.080;7.428;2022-08-05T12:49:56;0.30;;;0.30;;
13185;SDS011;6658;53.080;7.428;2022-08-05T12:52:22;1.37;;;0.40;;
13185;SDS011;6658;53.080;7.428;2022-08-05T12:54:48;0.30;;;0.20;;
13185;SDS011;6658;53.080;7.428;2022-08-05T12:57:15;1.70;;;0.47;;
13185;SDS011;6658;53.080;7.428;2022-08-05T12:59:42;1.50;;;0.50;;
13185;SDS011;6658;53.080;7.428;2022-08-05T13:02:10;0.90;;;0.40;;
13185;SDS011;6658;53.080;7.428;2022-08-05T13:04:39;5.50;;;0.40;;
13185;SDS011;6658;53.080;7.428;2022-08-05T13:07:10;1.60;;;0.30;;
13185;SDS011;6658;53.080;7.428;2022-08-05T13:09:41;1.97;;;0.33;;
13185;SDS011;6658;53.080;7.428;2022-08-05T13:12:12;0.73;;;0.30;;
13185;SDS011;6658;53.080;7.428;2022-08-05T13:14:40;0.67;;;0.30;;
13185;SDS011;6658;53.080;7.428;2022-08-05T13:17:08;0.50;;;0.20;;
13185;SDS011;6658;53.080;7.428;2022-08-05T13:19:41;1.60;;;0.40;;
13185;SDS011;6658;53.080;7.428;2022-08-05T13:22:35;1.50;;;0.30;;
13185;SDS011;6658;53.080;7.428;2022-08-05T13:25:03;0.23;;;0.20;;
13185;SDS011;6658;53.080;7.428;2022-08-05T13:27:34;0.30;;;0.30;;
13185;SDS011;6658;53.080;7.428;2022-08-05T13:30:02;0.87;;;0.20;;
13185;SDS011;6658;53.080;7.428;2022-08-05T13:32:28;1.53;;;0.20;;
13185;SDS011;6658;53.080;7.428;2022-08-05T13:34:54;0.20;;;0.20;;
13185;SDS011;6658;53.080;7.428;2022-08-05T13:37:20;0.77;;;0.30;;
13185;SDS011;6658;53.080;7.428;2022-08-05T13:39:47;0.73;;;0.27;;
13185;SDS011;6658;53.080;7.428;2022-08-05T13:42:13;2.27;;;0.70;;
13185;SDS011;6658;53.080;7.428;2022-08-05T13:44:40;0.27;;;0.20;;
13185;SDS011;6658;53.080;7.428;2022-08-05T13:47:08;0.20;;;0.20;;
13185;SDS011;6658;53.080;7.428;2022-08-05T13:49:34;0.70;;;0.30;;
13185;SDS011;6658;53.080;7.428;2022-08-05T13:52:09;1.17;;;0.40;;
13185;SDS011;6658;53.080;7.428;2022-08-05T13:54:36;1.47;;;0.20;;
13185;SDS011;6658;53.080;7.428;2022-08-05T13:57:02;1.00;;;0.30;;
13185;SDS011;6658;53.080;7.428;2022-08-05T13:59:28;0.87;;;0.40;;
13185;SDS011;6658;53.080;7.428;2022-08-05T14:01:54;0.30;;;0.30;;
13185;SDS011;6658;53.080;7.428;2022-08-05T14:04:20;0.80;;;0.20;;
13185;SDS011;6658;53.080;7.428;2022-08-05T14:07:22;1.50;;;0.57;;
13185;SDS011;6658;53.080;7.428;2022-08-05T14:09:58;1.70;;;0.40;;
13185;SDS011;6658;53.080;7.428;2022-08-05T14:12:24;0.30;;;0.30;;
13185;SDS011;6658;53.080;7.428;2022-08-05T14:14:51;1.00;;;0.20;;
13185;SDS011;6658;53.080;7.428;2022-08-05T14:17:16;1.27;;;0.30;;
13185;SDS011;6658;53.080;7.428;2022-08-05T14:19:43;1.00;;;0.40;;
13185;SDS011;6658;53.080;7.428;2022-08-05T14:22:09;0.80;;;0.47;;
13185;SDS011;6658;53.080;7.428;2022-08-05T14:24:35;1.37;;;0.43;;
13185;SDS011;6658;53.080;7.428;2022-08-05T14:27:02;0.20;;;0.20;;
13185;SDS011;6658;53.080;7.428;2022-08-05T14:29:28;0.90;;;0.30;;
13185;SDS011;6658;53.080;7.428;2022-08-05T14:31:54;2.03;;;0.50;;
13185;SDS011;6658;53.080;7.428;2022-08-05T14:34:20;0.47;;;0.23;;
13185;SDS011;6658;53.080;7.428;2022-08-05T14:36:45;1.40;;;0.50;;
13185;SDS011;6658;53.080;7.428;2022-08-05T14:39:11;0.40;;;0.40;;
13185;SDS011;6658;53.080;7.428;2022-08-05T14:41:37;0.53;;;0.30;;
13185;SDS011;6658;53.080;7.428;2022-08-05T14:44:02;1.93;;;0.60;;
13185;SDS011;6658;53.080;7.428;2022-08-05T14:46:29;0.87;;;0.30;;
13185;SDS011;6658;53.080;7.428;2022-08-05T14:48:56;1.13;;;0.47;;
13185;SDS011;6658;53.080;7.428;2022-08-05T14:51:22;0.60;;;0.40;;
13185;SDS011;6658;53.080;7.428;2022-08-05T14:53:48;0.57;;;0.30;;
13185;SDS011;6658;53.080;7.428;2022-08-05T14:56:14;1.23;;;0.47;;
13185;SDS011;6658;53.080;7.428;2022-08-05T14:58:40;2.27;;;0.50;;
13185;SDS011;6658;53.080;7.428;2022-08-05T15:01:06;1.60;;;0.30;;
13185;SDS011;6658;53.080;7.428;2022-08-05T15:03:33;0.97;;;0.30;;
13185;SDS011;6658;53.080;7.428;2022-08-05T15:05:58;1.00;;;0.40;;
13185;SDS011;6658;53.080;7.428;2022-08-05T15:08:24;1.77;;;0.50;;
13185;SDS011;6658;53.080;7.428;2022-08-05T15:10:50;0.63;;;0.40;;
13185;SDS011;6658;53.080;7.428;2022-08-05T15:13:16;2.20;;;0.43;;
13185;SDS011;6658;53.080;7.428;2022-08-05T15:15:43;1.60;;;0.27;;
13185;SDS011;6658;53.080;7.428;2022-08-05T15:18:08;0.97;;;0.67;;
13185;SDS011;6658;53.080;7.428;2022-08-05T15:20:34;0.87;;;0.50;;
13185;SDS011;6658;53.080;7.428;2022-08-05T15:23:04;2.10;;;0.67;;
13185;SDS011;6658;53.080;7.428;2022-08-05T15:25:30;1.03;;;0.50;;
13185;SDS011;6658;53.080;7.428;2022-08-05T15:27:56;3.83;;;0.67;;
13185;SDS011;6658;53.080;7.428;2022-08-05T15:30:22;3.17;;;0.87;;
13185;SDS011;6658;53.080;7.428;2022-08-05T15:32:48;1.13;;;0.60;;
13185;SDS011;6658;53.080;7.428;2022-08-05T15:35:14;1.47;;;0.60;;
13185;SDS011;6658;53.080;7.428;2022-08-05T15:37:39;1.93;;;0.97;;
13185;SDS011;6658;53.080;7.428;2022-08-05T15:40:06;5.33;;;1.30;;
13185;SDS011;6658;53.080;7.428;2022-08-05T15:42:32;0.90;;;0.40;;
13185;SDS011;6658;53.080;7.428;2022-08-05T15:44:58;2.50;;;0.77;;
13185;SDS011;6658;53.080;7.428;2022-08-05T15:47:24;2.07;;;0.40;;
13185;SDS011;6658;53.080;7.428;2022-08-05T15:49:50;2.13;;;0.70;;
13185;SDS011;6658;53.080;7.428;2022-08-05T15:52:18;0.63;;;0.37;;